sensor_id;sensor_type;location;lat;lon;timestamp;pressure;altitude;pressure_sealevel;temperature;humidity
24031;BME280;12240;51.142;22.486;2023-04-27T00:00:41;99324.69;;;4.69;100.00
24031;BME280;12240;51.142;22.486;2023-04-27T00:03:09;99331.63;;;4.70;100.00
24031;BME280;12240;51.142;22.486;2023-04-27T00:05:39;99328.28;;;4.68;100.00
24031;BME280;12240;51.142;22.486;2023-04-27T00:08:07;99332.59;;;4.69;100.00
24031;BME280;12240;51.142;22.486;2023-04-27T00:10:35;99333.53;;;4.68;100.00
24031;BME280;12240;51.142;22.486;2023-04-27T00:13:03;99322.78;;;4.71;100.00
24031;BME280;12240;51.142;22.486;2023-04-27T00:15:31;99332.59;;;4.69;100.00
24031;BME280;12240;51.142;22.486;2023-04-27T00:17:59;99331.16;;;4.65;100.00
24031;BME280;12240;51.142;22.486;2023-04-27T00:20:28;99335.50;;;4.66;100.00
24031;BME280;12240;51.142;22.486;2023-04-27T00:22:57;99341.59;;;4.66;100.00
24031;BME280;12240;51.142;22.486;2023-04-27T00:25:25;99329.38;;;4.65;100.00
24031;BME280;12240;51.142;22.486;2023-04-27T00:27:53;99328.50;;;4.65;100.00
24031;BME280;12240;51.142;22.486;2023-04-27T00:30:22;99327.66;;;4.64;100.00
24031;BME280;12240;51.142;22.486;2023-04-27T00:32:50;99336.53;;;4.63;100.00
24031;BME280;12240;51.142;22.486;2023-04-27T00:35:18;99342.56;;;4.65;100.00
24031;BME280;12240;51.142;22.486;2023-04-27T00:37:46;99335.94;;;4.60;100.00
24031;BME280;12240;51.142;22.486;2023-04-27T00:40:14;99334.28;;;4.59;100.00
24031;BME280;12240;51.142;22.486;2023-04-27T00:42:43;99339.75;;;4.56;100.00
24031;BME280;12240;51.142;22.486;2023-04-27T00:45:11;99336.41;;;4.54;100.00
24031;BME280;12240;51.142;22.486;2023-04-27T00:47:40;99343.59;;;4.52;100.00
24031;BME280;12240;51.142;22.486;2023-04-27T00:50:09;99339.63;;;4.46;100.00
24031;BME280;12240;51.142;22.486;2023-04-27T00:52:38;99344.28;;;4.43;100.00
24031;BME280;12240;51.142;22.486;2023-04-27T00:55:08;99335.88;;;4.38;100.00
24031;BME280;12240;51.142;22.486;2023-04-27T00:57:36;99330.09;;;4.33;100.00
24031;BME280;12240;51.142;22.486;2023-04-27T01:00:05;99337.72;;;4.25;100.00
24031;BME280;12240;51.142;22.486;2023-04-27T01:02:34;99343.81;;;4.14;100.00
24031;BME280;12240;51.142;22.486;2023-04-27T01:05:04;99340.75;;;4.08;100.00
24031;BME280;12240;51.142;22.486;2023-04-27T01:07:37;99350.41;;;3.96;100.00
24031;BME280;12240;51.142;22.486;2023-04-27T01:10:06;99348.66;;;3.84;100.00
24031;BME280;12240;51.142;22.486;2023-04-27T01:12:35;99347.31;;;3.79;100.00
24031;BME280;12240;51.142;22.486;2023-04-27T01:15:06;99348.81;;;3.70;100.00
24031;BME280;12240;51.142;22.486;2023-04-27T01:17:34;99356.31;;;3.64;100.00
24031;BME280;12240;51.142;22.486;2023-04-27T01:20:05;99357.59;;;3.58;100.00
24031;BME280;12240;51.142;22.486;2023-04-27T01:22:36;99351.72;;;3.54;100.00
24031;BME280;12240;51.142;22.486;2023-04-27T01:25:06;99365.22;;;3.50;100.00
24031;BME280;12240;51.142;22.486;2023-04-27T01:27:34;99362.19;;;3.43;100.00
24031;BME280;12240;51.142;22.486;2023-04-27T01:30:04;99367.13;;;3.35;100.00
24031;BME280;12240;51.142;22.486;2023-04-27T01:32:35;99367.66;;;3.28;100.00
24031;BME280;12240;51.142;22.486;2023-04-27T01:35:06;99366.09;;;3.25;100.00
24031;BME280;12240;51.142;22.486;2023-04-27T01:37:34;99367.66;;;3.15;100.00
24031;BME280;12240;51.142;22.486;2023-04-27T01:40:04;99374.72;;;3.15;100.00
24031;BME280;12240;51.142;22.486;2023-04-27T01:42:33;99368.81;;;3.11;100.00
24031;BME280;12240;51.142;22.486;2023-04-27T01:45:02;99378.31;;;3.01;100.00
24031;BME280;12240;51.142;22.486;2023-04-27T01:47:31;99384.00;;;2.95;100.00
24031;BME280;12240;51.142;22.486;2023-04-27T01:49:59;99384.63;;;2.86;100.00
24031;BME280;12240;51.142;22.486;2023-04-27T01:52:28;99384.69;;;2.72;100.00
24031;BME280;12240;51.142;22.486;2023-04-27T01:54:58;99388.47;;;2.56;100.00
24031;BME280;12240;51.142;22.486;2023-04-27T01:57:27;99389.38;;;2.42;100.00
24031;BME280;12240;51.142;22.486;2023-04-27T01:59:55;99387.47;;;2.31;100.00
24031;BME280;12240;51.142;22.486;2023-04-27T02:02:24;99392.28;;;2.25;100.00
24031;BME280;12240;51.142;22.486;2023-04-27T02:04:52;99389.50;;;2.14;100.00
24031;BME280;12240;51.142;22.486;2023-04-27T02:07:20;99385.94;;;2.15;100.00
24031;BME280;12240;51.142;22.486;2023-04-27T02:09:48;99391.28;;;2.13;100.00
24031;BME280;12240;51.142;22.486;2023-04-27T02:12:16;99395.34;;;2.05;100.00
24031;BME280;12240;51.142;22.486;2023-04-27T02:14:44;99398.16;;;2.02;100.00
24031;BME280;12240;51.142;22.486;2023-04-27T02:17:12;99394.78;;;2.00;100.00
24031;BME280;12240;51.142;22.486;2023-04-27T02:19:40;99405.41;;;1.98;100.00
24031;BME280;12240;51.142;22.486;2023-04-27T02:22:08;99391.72;;;1.93;100.00
24031;BME280;12240;51.142;22.486;2023-04-27T02:24:36;99400.19;;;1.84;100.00
24031;BME280;12240;51.142;22.486;2023-04-27T02:27:04;99397.13;;;1.78;100.00
24031;BME280;12240;51.142;22.486;2023-04-27T02:29:33;99402.66;;;1.73;100.00
24031;BME280;12240;51.142;22.486;2023-04-27T02:32:06;99393.59;;;1.65;100.00
24031;BME280;12240;51.142;22.486;2023-04-27T02:34:34;99399.50;;;1.54;100.00
24031;BME280;12240;51.142;22.486;2023-04-27T02:37:02;99399.78;;;1.50;100.00
24031;BME280;12240;51.142;22.486;2023-04-27T02:39:30;99406.94;;;1.34;100.00
24031;BME280;12240;51.142;22.486;2023-04-27T02:41:58;99412.44;;;1.29;100.00
24031;BME280;12240;51.142;22.486;2023-04-27T02:44:26;99405.06;;;1.22;100.00
24031;BME280;12240;51.142;22.486;2023-04-27T02:46:54;99405.50;;;1.14;100.00
24031;BME280;12240;51.142;22.486;2023-04-27T02:49:22;99415.63;;;1.06;100.00
24031;BME280;12240;51.142;22.486;2023-04-27T02:51:50;99418.53;;;1.01;100.00
24031;BME280;12240;51.142;22.486;2023-04-27T02:54:19;99416.16;;;0.97;100.00
24031;BME280;12240;51.142;22.486;2023-04-27T02:56:47;99419.06;;;0.92;100.00
24031;BME280;12240;51.142;22.486;2023-04-27T02:59:15;99413.28;;;0.87;100.00
24031;BME280;12240;51.142;22.486;2023-04-27T03:01:43;99416.25;;;0.81;100.00
24031;BME280;12240;51.142;22.486;2023-04-27T03:04:12;99420.81;;;0.78;100.00
24031;BME280;12240;51.142;22.486;2023-04-27T03:06:44;99428.00;;;0.74;100.00
24031;BME280;12240;51.142;22.486;2023-04-27T03:09:13;99417.25;;;0.65;100.00
24031;BME280;12240;51.142;22.486;2023-04-27T03:11:42;99425.53;;;0.57;100.00
24031;BME280;12240;51.142;22.486;2023-04-27T03:14:10;99427.50;;;0.54;100.00
24031;BME280;12240;51.142;22.486;2023-04-27T03:16:40;99430.28;;;0.51;100.00
24031;BME280;12240;51.142;22.486;2023-04-27T03:19:08;99428.53;;;0.51;100.00
24031;BME280;12240;51.142;22.486;2023-04-27T03:21:36;99427.78;;;0.49;100.00
24031;BME280;12240;51.142;22.486;2023-04-27T03:24:05;99434.00;;;0.47;100.00
24031;BME280;12240;51.142;22.486;2023-04-27T03:26:33;99436.53;;;0.48;100.00
24031;BME280;12240;51.142;22.486;2023-04-27T03:29:01;99436.38;;;0.51;100.00
24031;BME280;12240;51.142;22.486;2023-04-27T03:31:29;99433.75;;;0.51;100.00
24031;BME280;12240;51.142;22.486;2023-04-27T03:33:57;99429.34;;;0.52;100.00
24031;BME280;12240;51.142;22.486;2023-04-27T03:36:25;99437.31;;;0.50;100.00
24031;BME280;12240;51.142;22.486;2023-04-27T03:38:54;99436.47;;;0.50;100.00
24031;BME280;12240;51.142;22.486;2023-04-27T03:41:22;99446.38;;;0.45;100.00
24031;BME280;12240;51.142;22.486;2023-04-27T03:43:51;99447.28;;;0.44;100.00
24031;BME280;12240;51.142;22.486;2023-04-27T03:46:20;99452.53;;;0.44;100.00
24031;BME280;12240;51.142;22.486;2023-04-27T03:48:49;99449.16;;;0.42;100.00
24031;BME280;12240;51.142;22.486;2023-04-27T03:51:17;99453.22;;;0.32;100.00
24031;BME280;12240;51.142;22.486;2023-04-27T03:53:46;99461.28;;;0.29;100.00
24031;BME280;12240;51.142;22.486;2023-04-27T03:56:14;99472.50;;;0.31;100.00
24031;BME280;12240;51.142;22.486;2023-04-27T03:58:43;99467.94;;;0.34;100.00
24031;BME280;12240;51.142;22.486;2023-04-27T04:01:21;99469.97;;;0.45;100.00
24031;BME280;12240;51.142;22.486;2023-04-27T04:03:50;99473.72;;;0.55;100.00
24031;BME280;12240;51.142;22.486;2023-04-27T04:06:18;99472.59;;;0.59;100.00
24031;BME280;12240;51.142;22.486;2023-04-27T04:08:46;99476.47;;;0.67;100.00
24031;BME280;12240;51.142;22.486;2023-04-27T04:11:14;99471.75;;;0.74;100.00
24031;BME280;12240;51.142;22.486;2023-04-27T04:13:43;99480.09;;;0.80;100.00
24031;BME280;12240;51.142;22.486;2023-04-27T04:16:12;99474.38;;;0.88;100.00
24031;BME280;12240;51.142;22.486;2023-04-27T04:18:40;99487.91;;;0.96;100.00
24031;BME280;12240;51.142;22.486;2023-04-27T04:21:10;99484.56;;;1.08;100.00
24031;BME280;12240;51.142;22.486;2023-04-27T04:23:39;99482.13;;;1.19;100.00
24031;BME280;12240;51.142;22.486;2023-04-27T04:26:08;99496.22;;;1.32;100.00
24031;BME280;12240;51.142;22.486;2023-04-27T04:28:37;99491.91;;;1.45;100.00
24031;BME280;12240;51.142;22.486;2023-04-27T04:31:05;99494.44;;;1.61;100.00
24031;BME280;12240;51.142;22.486;2023-04-27T04:33:37;99494.03;;;1.81;100.00
24031;BME280;12240;51.142;22.486;2023-04-27T04:36:06;99501.78;;;2.10;100.00
24031;BME280;12240;51.142;22.486;2023-04-27T04:38:34;99490.03;;;2.57;100.00
24031;BME280;12240;51.142;22.486;2023-04-27T04:41:02;99497.31;;;3.05;100.00
24031;BME280;12240;51.142;22.486;2023-04-27T04:43:33;99498.59;;;3.49;100.00
24031;BME280;12240;51.142;22.486;2023-04-27T04:46:04;99499.25;;;3.53;100.00
24031;BME280;12240;51.142;22.486;2023-04-27T04:48:34;99501.22;;;3.87;100.00
24031;BME280;12240;51.142;22.486;2023-04-27T04:51:05;99490.94;;;4.08;100.00
24031;BME280;12240;51.142;22.486;2023-04-27T04:53:36;99494.31;;;4.22;100.00
24031;BME280;12240;51.142;22.486;2023-04-27T04:56:12;99496.28;;;4.55;100.00
24031;BME280;12240;51.142;22.486;2023-04-27T04:58:41;99489.94;;;4.81;100.00
24031;BME280;12240;51.142;22.486;2023-04-27T05:01:09;99493.25;;;4.72;100.00
24031;BME280;12240;51.142;22.486;2023-04-27T05:03:38;99485.31;;;4.96;100.00
24031;BME280;12240;51.142;22.486;2023-04-27T05:06:07;99489.41;;;5.34;100.00
24031;BME280;12240;51.142;22.486;2023-04-27T05:08:35;99487.97;;;5.41;100.00
24031;BME280;12240;51.142;22.486;2023-04-27T05:11:04;99484.38;;;5.31;100.00
24031;BME280;12240;51.142;22.486;2023-04-27T05:13:32;99486.41;;;4.69;100.00
24031;BME280;12240;51.142;22.486;2023-04-27T05:16:06;99480.22;;;5.16;100.00
24031;BME280;12240;51.142;22.486;2023-04-27T05:18:34;99484.56;;;5.28;100.00
24031;BME280;12240;51.142;22.486;2023-04-27T05:21:03;99479.19;;;5.41;100.00
24031;BME280;12240;51.142;22.486;2023-04-27T05:23:31;99484.84;;;5.47;100.00
24031;BME280;12240;51.142;22.486;2023-04-27T05:26:00;99494.94;;;5.64;100.00
24031;BME280;12240;51.142;22.486;2023-04-27T05:28:28;99484.88;;;5.80;100.00
24031;BME280;12240;51.142;22.486;2023-04-27T05:30:56;99499.28;;;5.76;100.00
24031;BME280;12240;51.142;22.486;2023-04-27T05:33:24;99489.22;;;6.26;100.00
24031;BME280;12240;51.142;22.486;2023-04-27T05:35:52;99490.97;;;6.47;100.00
24031;BME280;12240;51.142;22.486;2023-04-27T05:38:20;99489.13;;;6.59;100.00
24031;BME280;12240;51.142;22.486;2023-04-27T05:40:58;99493.59;;;6.58;100.00
24031;BME280;12240;51.142;22.486;2023-04-27T05:43:27;99485.59;;;6.69;100.00
24031;BME280;12240;51.142;22.486;2023-04-27T05:45:55;99491.88;;;6.68;100.00
24031;BME280;12240;51.142;22.486;2023-04-27T05:48:23;99493.72;;;6.88;100.00
24031;BME280;12240;51.142;22.486;2023-04-27T05:51:12;99496.50;;;6.87;100.00
24031;BME280;12240;51.142;22.486;2023-04-27T05:53:40;99498.25;;;7.29;100.00
24031;BME280;12240;51.142;22.486;2023-04-27T05:56:08;99501.38;;;7.64;100.00
24031;BME280;12240;51.142;22.486;2023-04-27T05:58:38;99491.00;;;7.82;100.00
24031;BME280;12240;51.142;22.486;2023-04-27T06:01:07;99492.47;;;7.95;100.00
24031;BME280;12240;51.142;22.486;2023-04-27T06:03:35;99493.63;;;8.12;100.00
24031;BME280;12240;51.142;22.486;2023-04-27T06:06:03;99494.75;;;8.40;100.00
24031;BME280;12240;51.142;22.486;2023-04-27T06:08:32;99494.06;;;8.57;100.00
24031;BME280;12240;51.142;22.486;2023-04-27T06:11:02;99490.88;;;8.63;100.00
24031;BME280;12240;51.142;22.486;2023-04-27T06:13:30;99486.97;;;8.48;100.00
24031;BME280;12240;51.142;22.486;2023-04-27T06:16:00;99479.66;;;8.31;100.00
24031;BME280;12240;51.142;22.486;2023-04-27T06:18:28;99491.19;;;7.60;100.00
24031;BME280;12240;51.142;22.486;2023-04-27T06:21:00;99488.03;;;8.36;100.00
24031;BME280;12240;51.142;22.486;2023-04-27T06:23:29;99487.94;;;8.66;100.00
24031;BME280;12240;51.142;22.486;2023-04-27T06:25:57;99496.09;;;9.21;100.00
24031;BME280;12240;51.142;22.486;2023-04-27T06:28:25;99491.75;;;9.20;100.00
24031;BME280;12240;51.142;22.486;2023-04-27T06:30:53;99496.78;;;9.33;100.00
24031;BME280;12240;51.142;22.486;2023-04-27T06:33:22;99487.81;;;9.43;100.00
24031;BME280;12240;51.142;22.486;2023-04-27T06:35:50;99489.94;;;9.21;100.00
24031;BME280;12240;51.142;22.486;2023-04-27T06:38:18;99482.34;;;9.45;100.00
24031;BME280;12240;51.142;22.486;2023-04-27T06:40:50;99481.56;;;9.81;100.00
24031;BME280;12240;51.142;22.486;2023-04-27T06:43:19;99480.56;;;9.07;100.00
24031;BME280;12240;51.142;22.486;2023-04-27T06:45:47;99498.56;;;9.61;100.00
24031;BME280;12240;51.142;22.486;2023-04-27T06:48:16;99485.22;;;9.80;100.00
24031;BME280;12240;51.142;22.486;2023-04-27T06:50:44;99486.94;;;10.08;100.00
24031;BME280;12240;51.142;22.486;2023-04-27T06:53:12;99475.00;;;9.20;100.00
24031;BME280;12240;51.142;22.486;2023-04-27T06:55:41;99476.28;;;10.18;100.00
24031;BME280;12240;51.142;22.486;2023-04-27T06:58:13;99468.03;;;10.02;100.00
24031;BME280;12240;51.142;22.486;2023-04-27T07:00:41;99475.41;;;10.44;100.00
24031;BME280;12240;51.142;22.486;2023-04-27T07:03:09;99464.44;;;10.30;100.00
24031;BME280;12240;51.142;22.486;2023-04-27T07:05:38;99466.84;;;10.50;100.00
24031;BME280;12240;51.142;22.486;2023-04-27T07:08:06;99469.66;;;10.67;100.00
24031;BME280;12240;51.142;22.486;2023-04-27T07:10:35;99490.69;;;10.15;100.00
24031;BME280;12240;51.142;22.486;2023-04-27T07:13:04;99481.63;;;10.80;100.00
24031;BME280;12240;51.142;22.486;2023-04-27T07:15:35;99468.72;;;10.85;100.00
24031;BME280;12240;51.142;22.486;2023-04-27T07:18:04;99467.22;;;10.55;100.00
24031;BME280;12240;51.142;22.486;2023-04-27T07:20:32;99486.03;;;11.24;100.00
24031;BME280;12240;51.142;22.486;2023-04-27T07:23:01;99486.47;;;12.06;100.00
24031;BME280;12240;51.142;22.486;2023-04-27T07:25:29;99476.28;;;12.43;100.00
24031;BME280;12240;51.142;22.486;2023-04-27T07:27:58;99467.28;;;10.46;96.60
24031;BME280;12240;51.142;22.486;2023-04-27T07:30:26;99482.16;;;9.66;97.00
24031;BME280;12240;51.142;22.486;2023-04-27T07:32:57;99479.63;;;9.74;98.22
24031;BME280;12240;51.142;22.486;2023-04-27T07:35:28;99482.97;;;11.37;100.00
24031;BME280;12240;51.142;22.486;2023-04-27T07:37:56;99464.25;;;11.72;97.05
24031;BME280;12240;51.142;22.486;2023-04-27T07:40:26;99463.00;;;12.67;95.51
24031;BME280;12240;51.142;22.486;2023-04-27T07:42:55;99474.59;;;12.42;93.86
24031;BME280;12240;51.142;22.486;2023-04-27T07:45:23;99468.22;;;12.27;91.39
24031;BME280;12240;51.142;22.486;2023-04-27T07:47:59;99465.22;;;12.88;90.93
24031;BME280;12240;51.142;22.486;2023-04-27T07:50:30;99457.56;;;13.65;89.89
24031;BME280;12240;51.142;22.486;2023-04-27T07:52:58;99459.25;;;13.34;87.27
24031;BME280;12240;51.142;22.486;2023-04-27T07:55:29;99462.91;;;13.49;87.36
24031;BME280;12240;51.142;22.486;2023-04-27T07:57:57;99453.03;;;14.21;86.38
24031;BME280;12240;51.142;22.486;2023-04-27T08:00:25;99453.28;;;14.50;84.43
24031;BME280;12240;51.142;22.486;2023-04-27T08:02:54;99456.00;;;12.17;81.19
24031;BME280;12240;51.142;22.486;2023-04-27T08:05:23;99471.53;;;12.79;83.89
24031;BME280;12240;51.142;22.486;2023-04-27T08:07:51;99466.78;;;12.49;83.97
24031;BME280;12240;51.142;22.486;2023-04-27T08:10:21;99468.28;;;13.49;83.23
24031;BME280;12240;51.142;22.486;2023-04-27T08:12:50;99465.47;;;14.14;83.22
24031;BME280;12240;51.142;22.486;2023-04-27T08:15:19;99451.50;;;13.71;78.15
24031;BME280;12240;51.142;22.486;2023-04-27T08:17:49;99460.84;;;14.46;78.96
24031;BME280;12240;51.142;22.486;2023-04-27T08:20:17;99460.59;;;13.30;74.59
24031;BME280;12240;51.142;22.486;2023-04-27T08:22:46;99447.81;;;11.59;71.99
24031;BME280;12240;51.142;22.486;2023-04-27T08:25:14;99451.69;;;12.89;75.56
24031;BME280;12240;51.142;22.486;2023-04-27T08:27:42;99455.00;;;12.91;74.20
24031;BME280;12240;51.142;22.486;2023-04-27T08:30:11;99455.69;;;13.66;74.74
24031;BME280;12240;51.142;22.486;2023-04-27T08:32:39;99458.59;;;13.16;71.94
24031;BME280;12240;51.142;22.486;2023-04-27T08:35:08;99468.03;;;12.78;75.65
24031;BME280;12240;51.142;22.486;2023-04-27T08:37:36;99460.56;;;12.32;73.42
24031;BME280;12240;51.142;22.486;2023-04-27T08:40:07;99456.78;;;11.32;73.48
24031;BME280;12240;51.142;22.486;2023-04-27T08:42:39;99459.81;;;11.63;74.67
24031;BME280;12240;51.142;22.486;2023-04-27T08:45:09;99466.16;;;11.19;75.62
24031;BME280;12240;51.142;22.486;2023-04-27T08:47:38;99473.31;;;11.79;79.18
24031;BME280;12240;51.142;22.486;2023-04-27T08:50:11;99469.25;;;12.42;79.80
24031;BME280;12240;51.142;22.486;2023-04-27T08:52:43;99466.91;;;11.29;76.25
24031;BME280;12240;51.142;22.486;2023-04-27T08:55:12;99475.78;;;11.55;77.91
24031;BME280;12240;51.142;22.486;2023-04-27T08:57:58;99462.59;;;11.71;76.24
24031;BME280;12240;51.142;22.486;2023-04-27T09:00:39;99457.09;;;12.48;74.39
24031;BME280;12240;51.142;22.486;2023-04-27T09:03:24;99461.25;;;12.01;74.78
24031;BME280;12240;51.142;22.486;2023-04-27T09:05:53;99462.81;;;12.61;75.93
24031;BME280;12240;51.142;22.486;2023-04-27T09:08:50;99457.97;;;12.64;75.54
24031;BME280;12240;51.142;22.486;2023-04-27T09:11:33;99453.94;;;12.52;74.16
24031;BME280;12240;51.142;22.486;2023-04-27T09:14:17;99456.78;;;11.76;75.55
24031;BME280;12240;51.142;22.486;2023-04-27T09:16:53;99450.06;;;12.47;75.38
24031;BME280;12240;51.142;22.486;2023-04-27T09:19:26;99455.13;;;12.16;75.73
24031;BME280;12240;51.142;22.486;2023-04-27T09:22:10;99441.84;;;12.24;73.52
24031;BME280;12240;51.142;22.486;2023-04-27T09:24:49;99444.53;;;12.32;72.30
24031;BME280;12240;51.142;22.486;2023-04-27T09:27:21;99456.75;;;13.09;74.12
24031;BME280;12240;51.142;22.486;2023-04-27T09:29:50;99444.38;;;12.34;71.38
24031;BME280;12240;51.142;22.486;2023-04-27T09:32:18;99458.53;;;12.84;77.15
24031;BME280;12240;51.142;22.486;2023-04-27T09:34:49;99446.38;;;14.17;77.03
24031;BME280;12240;51.142;22.486;2023-04-27T09:37:18;99435.88;;;13.36;71.00
24031;BME280;12240;51.142;22.486;2023-04-27T09:39:46;99431.34;;;13.37;72.49
24031;BME280;12240;51.142;22.486;2023-04-27T09:42:16;99436.84;;;13.35;74.00
24031;BME280;12240;51.142;22.486;2023-04-27T09:44:45;99444.53;;;12.98;73.61
24031;BME280;12240;51.142;22.486;2023-04-27T09:47:13;99445.75;;;11.70;74.76
24031;BME280;12240;51.142;22.486;2023-04-27T09:49:42;99450.88;;;11.64;75.53
24031;BME280;12240;51.142;22.486;2023-04-27T09:52:10;99443.41;;;11.24;74.98
24031;BME280;12240;51.142;22.486;2023-04-27T09:54:39;99451.56;;;10.70;74.78
24031;BME280;12240;51.142;22.486;2023-04-27T10:00:37;99443.94;;;12.62;74.64
24031;BME280;12240;51.142;22.486;2023-04-27T10:03:38;99437.59;;;12.55;72.31
24031;BME280;12240;51.142;22.486;2023-04-27T10:06:52;99442.22;;;13.03;74.84
24031;BME280;12240;51.142;22.486;2023-04-27T10:09:26;99448.03;;;13.55;73.62
24031;BME280;12240;51.142;22.486;2023-04-27T10:12:35;99414.09;;;13.63;70.03
24031;BME280;12240;51.142;22.486;2023-04-27T10:15:15;99414.41;;;14.15;72.90
24031;BME280;12240;51.142;22.486;2023-04-27T10:17:49;99415.59;;;14.13;71.86
24031;BME280;12240;51.142;22.486;2023-04-27T10:20:34;99418.97;;;13.28;71.27
24031;BME280;12240;51.142;22.486;2023-04-27T10:23:03;99420.00;;;12.29;72.40
24031;BME280;12240;51.142;22.486;2023-04-27T10:25:39;99430.81;;;12.19;72.75
24031;BME280;12240;51.142;22.486;2023-04-27T10:28:15;99420.31;;;12.26;71.29
24031;BME280;12240;51.142;22.486;2023-04-27T10:30:48;99417.06;;;12.56;70.89
24031;BME280;12240;51.142;22.486;2023-04-27T10:33:20;99428.28;;;12.18;71.80
24031;BME280;12240;51.142;22.486;2023-04-27T10:35:58;99432.81;;;12.17;71.17
24031;BME280;12240;51.142;22.486;2023-04-27T10:38:29;99444.25;;;12.02;72.54
24031;BME280;12240;51.142;22.486;2023-04-27T10:41:02;99435.63;;;11.31;71.58
24031;BME280;12240;51.142;22.486;2023-04-27T10:43:34;99432.69;;;11.93;72.21
24031;BME280;12240;51.142;22.486;2023-04-27T10:46:15;99434.09;;;12.05;71.12
24031;BME280;12240;51.142;22.486;2023-04-27T10:48:44;99432.31;;;12.96;72.71
24031;BME280;12240;51.142;22.486;2023-04-27T10:51:15;99446.03;;;13.41;75.14
24031;BME280;12240;51.142;22.486;2023-04-27T10:53:44;99426.84;;;13.29;70.83
24031;BME280;12240;51.142;22.486;2023-04-27T10:56:14;99413.53;;;13.76;71.09
24031;BME280;12240;51.142;22.486;2023-04-27T10:58:42;99429.50;;;13.37;71.14
24031;BME280;12240;51.142;22.486;2023-04-27T11:01:25;99431.53;;;13.03;70.26
24031;BME280;12240;51.142;22.486;2023-04-27T11:03:58;99438.19;;;13.07;71.83
24031;BME280;12240;51.142;22.486;2023-04-27T11:06:30;99441.19;;;13.04;71.54
24031;BME280;12240;51.142;22.486;2023-04-27T11:09:01;99422.16;;;12.33;67.83
24031;BME280;12240;51.142;22.486;2023-04-27T11:11:31;99451.25;;;11.26;68.45
24031;BME280;12240;51.142;22.486;2023-04-27T11:13:59;99457.00;;;11.21;69.72
24031;BME280;12240;51.142;22.486;2023-04-27T11:16:33;99459.56;;;10.88;71.33
24031;BME280;12240;51.142;22.486;2023-04-27T11:19:04;99464.03;;;10.52;72.77
24031;BME280;12240;51.142;22.486;2023-04-27T11:21:33;99471.50;;;11.19;74.71
24031;BME280;12240;51.142;22.486;2023-04-27T11:24:06;99475.22;;;11.26;74.61
24031;BME280;12240;51.142;22.486;2023-04-27T11:26:35;99473.63;;;11.33;75.09
24031;BME280;12240;51.142;22.486;2023-04-27T11:29:09;99468.28;;;11.76;75.26
24031;BME280;12240;51.142;22.486;2023-04-27T11:31:47;99457.03;;;11.64;73.97
24031;BME280;12240;51.142;22.486;2023-04-27T11:34:22;99457.44;;;11.52;72.58
24031;BME280;12240;51.142;22.486;2023-04-27T11:36:58;99468.38;;;12.26;76.27
24031;BME280;12240;51.142;22.486;2023-04-27T11:39:44;99451.69;;;12.32;72.42
24031;BME280;12240;51.142;22.486;2023-04-27T11:42:17;99449.63;;;11.76;70.22
24031;BME280;12240;51.142;22.486;2023-04-27T11:45:06;99455.25;;;13.22;72.74
24031;BME280;12240;51.142;22.486;2023-04-27T11:47:35;99464.44;;;13.12;73.72
24031;BME280;12240;51.142;22.486;2023-04-27T11:50:06;99443.75;;;12.56;70.27
24031;BME280;12240;51.142;22.486;2023-04-27T11:52:37;99438.00;;;12.27;70.63
24031;BME280;12240;51.142;22.486;2023-04-27T11:55:07;99448.56;;;12.36;71.58
24031;BME280;12240;51.142;22.486;2023-04-27T11:57:43;99445.41;;;12.49;69.60
24031;BME280;12240;51.142;22.486;2023-04-27T12:00:12;99444.31;;;12.75;68.47
24031;BME280;12240;51.142;22.486;2023-04-27T12:02:43;99433.16;;;12.88;66.37
24031;BME280;12240;51.142;22.486;2023-04-27T12:05:12;99426.16;;;13.11;65.43
24031;BME280;12240;51.142;22.486;2023-04-27T12:07:41;99428.97;;;12.85;66.65
24031;BME280;12240;51.142;22.486;2023-04-27T12:10:10;99440.97;;;12.73;66.68
24031;BME280;12240;51.142;22.486;2023-04-27T12:12:39;99452.84;;;12.79;67.84
24031;BME280;12240;51.142;22.486;2023-04-27T12:15:08;99443.66;;;12.24;68.81
24031;BME280;12240;51.142;22.486;2023-04-27T12:17:38;99452.53;;;12.24;68.23
24031;BME280;12240;51.142;22.486;2023-04-27T12:20:07;99456.84;;;12.17;69.77
24031;BME280;12240;51.142;22.486;2023-04-27T12:22:36;99463.38;;;11.97;72.37
24031;BME280;12240;51.142;22.486;2023-04-27T12:25:05;99459.47;;;11.58;71.45
24031;BME280;12240;51.142;22.486;2023-04-27T12:27:33;99474.81;;;11.82;74.49
24031;BME280;12240;51.142;22.486;2023-04-27T12:30:01;99489.16;;;11.63;76.10
24031;BME280;12240;51.142;22.486;2023-04-27T12:32:31;99483.03;;;11.88;76.08
24031;BME280;12240;51.142;22.486;2023-04-27T12:35:00;99469.53;;;11.21;72.63
24031;BME280;12240;51.142;22.486;2023-04-27T12:37:28;99473.78;;;11.75;73.70
24031;BME280;12240;51.142;22.486;2023-04-27T12:39:57;99472.09;;;11.73;72.62
24031;BME280;12240;51.142;22.486;2023-04-27T12:42:25;99452.22;;;11.68;67.87
24031;BME280;12240;51.142;22.486;2023-04-27T12:44:53;99447.53;;;11.44;66.56
24031;BME280;12240;51.142;22.486;2023-04-27T12:47:22;99444.78;;;12.05;68.25
24031;BME280;12240;51.142;22.486;2023-04-27T12:49:53;99449.81;;;12.16;67.16
24031;BME280;12240;51.142;22.486;2023-04-27T12:52:21;99443.84;;;12.22;66.73
24031;BME280;12240;51.142;22.486;2023-04-27T12:54:50;99435.38;;;11.93;66.26
24031;BME280;12240;51.142;22.486;2023-04-27T12:57:24;99451.84;;;11.89;67.72
24031;BME280;12240;51.142;22.486;2023-04-27T12:59:53;99454.06;;;11.93;68.32
24031;BME280;12240;51.142;22.486;2023-04-27T13:02:21;99455.09;;;11.06;68.24
24031;BME280;12240;51.142;22.486;2023-04-27T13:04:50;99472.19;;;11.21;70.98
24031;BME280;12240;51.142;22.486;2023-04-27T13:07:18;99470.06;;;11.07;71.10
24031;BME280;12240;51.142;22.486;2023-04-27T13:09:47;99471.91;;;10.71;72.15